Settsu — JQWO — position and weather

sailwx.info

Track history (hours):
 
Tides and Currents Weather Stations Pressure Air Temp Water Temp Dewpoint Dewpoint Depression Visibility Wind Speed Wind Dir Waves Ship Positions

Settsu

Last reported at 2018-Jun-18 08:58 UTC. Time now 2018-Jun-20 07:24 UTC.
Position N 34°41' E 135°13'.

Length 105 m; draft 5.2 m.

Type: SAR. MMSI: 431282000.

Date/timePositionNaut miles runAvg speedWind from/ knotsBaromVisibWave heightAir tempDewpointWater temp
2018-Jun-18 08:58N 34°41' E 135°13'0 0.5
2018-Jun-18 08:30N 34°41' E 135°12'4 7.1
2018-Jun-18 08:00N 34°39' E 135°16'611.3
2018-Jun-18 07:30N 34°34' E 135°14'4 2.8
2018-Jun-18 06:08N 34°37' E 135°11'212.0
2018-Jun-18 06:00N 34°38' E 135°11'2 4.2
2018-Jun-18 05:29N 34°40' E 135°12'0 0.5
2018-Jun-18 04:59N 34°40' E 135°12'2 5.0
2018-Jun-18 04:30N 34°38' E 135°11'3 5.1
2018-Jun-18 04:00N 34°35' E 135°11'2 4.5
2018-Jun-18 03:30N 34°34' E 135°13'0 1.0
2018-Jun-18 03:00N 34°34' E 135°14'0 1.0
2018-Jun-18 02:30N 34°33' E 135°14'1 1.1
2018-Jun-18 02:00N 34°33' E 135°15'0 0.9
2018-Jun-18 01:30N 34°33' E 135°15'0 0.9
2018-Jun-18 01:00N 34°33' E 135°16'1 1.2
2018-Jun-18 00:29N 34°34' E 135°16'510.0
2018-Jun-18 00:01N 34°38' E 135°19'2 4.5
2018-Jun-17 23:30N 34°40' E 135°20'  
2018-Jun-15 04:56N 34°13' E 135°05'2 5.7
2018-Jun-15 04:31N 34°13' E 135°08'0 0.0
2018-Jun-14 04:18N 34°13' E 135°08'0 0.0
2018-Jun-14 04:01N 34°13' E 135°08'0 0.0
2018-Jun-14 03:30N 34°13' E 135°08'2 3.8
2018-Jun-14 02:58N 34°13' E 135°06'2510.9
2018-Jun-14 00:39N 34°37' E 135°16'212.9
2018-Jun-14 00:30N 34°39' E 135°16'3 6.7
2018-Jun-14 00:00N 34°41' E 135°13'0 0.0
2018-Jun-13 23:30N 34°41' E 135°13'0 0.0
2018-Jun-13 23:00N 34°41' E 135°13'0 0.0
2018-Jun-13 22:30N 34°41' E 135°13'0 0.0
2018-Jun-13 22:00N 34°41' E 135°13'0 0.0
2018-Jun-13 21:30N 34°41' E 135°13'0 0.0
2018-Jun-13 21:00N 34°41' E 135°13'0 0.0
2018-Jun-13 20:30N 34°41' E 135°13'0 0.0
2018-Jun-13 20:00N 34°41' E 135°13'0 0.0
2018-Jun-13 19:30N 34°41' E 135°13'0 0.0
2018-Jun-13 19:00N 34°41' E 135°13'0 0.0
2018-Jun-13 18:30N 34°41' E 135°13'0 0.0
2018-Jun-13 18:00N 34°41' E 135°13'0 0.0
2018-Jun-13 17:30N 34°41' E 135°13'0 0.0
2018-Jun-13 17:00N 34°41' E 135°13'0 0.0
2018-Jun-13 16:30N 34°41' E 135°13'0 0.0
2018-Jun-13 16:00N 34°41' E 135°13'0 0.0
2018-Jun-13 15:30N 34°41' E 135°13'0 0.0
2018-Jun-13 15:00N 34°41' E 135°13'0 0.0
2018-Jun-13 14:30N 34°41' E 135°13'0 0.0
2018-Jun-13 14:00N 34°41' E 135°13'0 0.0
2018-Jun-13 13:30N 34°41' E 135°13'0 0.0
2018-Jun-13 13:00N 34°41' E 135°13'0 0.0
2018-Jun-13 12:30N 34°41' E 135°13'0 0.0
2018-Jun-13 12:00N 34°41' E 135°13'0 0.0
2018-Jun-13 11:30N 34°41' E 135°13'0 0.0
2018-Jun-13 10:59N 34°41' E 135°13'0 0.0
2018-Jun-13 10:30N 34°41' E 135°13'0 0.0
2018-Jun-13 09:59N 34°41' E 135°13'0 0.0
2018-Jun-13 09:30N 34°41' E 135°13'0 0.0
2018-Jun-13 09:00N 34°41' E 135°13'0 0.0
2018-Jun-13 08:30N 34°41' E 135°13'0 0.0
2018-Jun-13 08:00N 34°41' E 135°13'0 0.0
2018-Jun-13 07:30N 34°41' E 135°13'0 0.0
2018-Jun-13 07:00N 34°41' E 135°13'0 0.0
2018-Jun-13 06:30N 34°41' E 135°13'0 0.0
2018-Jun-13 05:59N 34°41' E 135°13'0 0.0
2018-Jun-13 05:30N 34°41' E 135°13'0 0.0
2018-Jun-13 05:00N 34°41' E 135°13'0 0.0
2018-Jun-13 04:30N 34°41' E 135°13'0 0.0
2018-Jun-13 04:00N 34°41' E 135°13'0 0.0
2018-Jun-13 03:30N 34°41' E 135°13'0 0.0
2018-Jun-13 03:00N 34°41' E 135°13'0 0.0
2018-Jun-13 02:30N 34°41' E 135°13'0 0.0
2018-Jun-13 02:00N 34°41' E 135°13'0 0.0
2018-Jun-13 01:30N 34°41' E 135°13'0 0.0
2018-Jun-13 01:00N 34°41' E 135°13'0 0.0
2018-Jun-13 00:30N 34°41' E 135°13'0 0.0
2018-Jun-13 00:00N 34°41' E 135°13'0 0.0
2018-Jun-12 23:30N 34°41' E 135°13'0 0.0
2018-Jun-12 23:00N 34°41' E 135°13'0 0.0
2018-Jun-12 22:30N 34°41' E 135°13'0 0.0
2018-Jun-12 22:00N 34°41' E 135°13'0 0.0
2018-Jun-12 21:30N 34°41' E 135°13'0 0.0
2018-Jun-12 21:00N 34°41' E 135°13'0 0.0
2018-Jun-12 20:30N 34°41' E 135°13'0 0.0
2018-Jun-12 20:00N 34°41' E 135°13'0 0.0
2018-Jun-12 19:29N 34°41' E 135°13'0 0.0
2018-Jun-12 19:00N 34°41' E 135°13'0 0.0
2018-Jun-12 18:30N 34°41' E 135°13'0 0.0
2018-Jun-12 18:00N 34°41' E 135°13'0 0.0
2018-Jun-12 17:29N 34°41' E 135°13'0 0.0
2018-Jun-12 17:00N 34°41' E 135°13'0 0.0
2018-Jun-12 16:30N 34°41' E 135°13'0 0.0
2018-Jun-12 16:00N 34°41' E 135°13'0 0.0
2018-Jun-12 15:30N 34°41' E 135°13'0 0.0
2018-Jun-12 15:00N 34°41' E 135°13'0 0.0
2018-Jun-12 14:30N 34°41' E 135°13'0 0.0
2018-Jun-12 14:00N 34°41' E 135°13'0 0.0
2018-Jun-12 13:30N 34°41' E 135°13'0 0.0
2018-Jun-12 13:00N 34°41' E 135°13'0 0.0
2018-Jun-12 12:30N 34°41' E 135°13'0 0.0
2018-Jun-12 12:00N 34°41' E 135°13'0 0.0
2018-Jun-12 11:30N 34°41' E 135°13'0 0.0
2018-Jun-12 11:00N 34°41' E 135°13'0 0.0
2018-Jun-12 10:30N 34°41' E 135°13'0 0.0
2018-Jun-12 10:00N 34°41' E 135°13'0 0.0
2018-Jun-12 09:30N 34°41' E 135°13'0 0.0
2018-Jun-12 09:00N 34°41' E 135°13'0 0.0
2018-Jun-12 08:30N 34°41' E 135°13'0 0.0
2018-Jun-12 08:00N 34°41' E 135°13'0 0.0
2018-Jun-12 07:30N 34°41' E 135°13'0 0.0
2018-Jun-12 07:00N 34°41' E 135°13'0 0.0
2018-Jun-12 06:28N 34°41' E 135°13'0 0.0
2018-Jun-12 06:00N 34°41' E 135°13'0 0.0
2018-Jun-12 05:30N 34°41' E 135°13'0 0.0
2018-Jun-12 04:59N 34°41' E 135°13'0 0.0
2018-Jun-12 04:30N 34°41' E 135°13'0 0.0
2018-Jun-12 04:00N 34°41' E 135°13'0 0.0
2018-Jun-12 03:30N 34°41' E 135°13'0 0.0
2018-Jun-12 03:00N 34°41' E 135°13'0 0.0
2018-Jun-12 02:30N 34°41' E 135°13'0 0.0
2018-Jun-12 01:57N 34°41' E 135°13'0 0.0
2018-Jun-12 01:30N 34°41' E 135°13'0 0.0
2018-Jun-12 01:00N 34°41' E 135°13'0 0.0
2018-Jun-12 00:30N 34°41' E 135°13'0 0.0
2018-Jun-12 00:00N 34°41' E 135°13'0 0.0
2018-Jun-11 23:30N 34°41' E 135°13'0 0.0
2018-Jun-11 23:00N 34°41' E 135°13'0 0.0
2018-Jun-11 22:30N 34°41' E 135°13'0 0.0
2018-Jun-11 22:00N 34°41' E 135°13'0 0.0
2018-Jun-11 21:30N 34°41' E 135°13'0 0.0
2018-Jun-11 21:00N 34°41' E 135°13'0 0.0
2018-Jun-11 20:30N 34°41' E 135°13'0 0.0
2018-Jun-11 20:00N 34°41' E 135°13'0 0.0
2018-Jun-11 19:30N 34°41' E 135°13'0 0.0
2018-Jun-11 19:00N 34°41' E 135°13'0 0.0
2018-Jun-11 18:30N 34°41' E 135°13'0 0.0
2018-Jun-11 18:00N 34°41' E 135°13'0 0.0
2018-Jun-11 17:30N 34°41' E 135°13'0 0.0
2018-Jun-11 16:57N 34°41' E 135°13'0 0.0
2018-Jun-11 16:30N 34°41' E 135°13'0 0.0
2018-Jun-11 16:00N 34°41' E 135°13'0 0.0
2018-Jun-11 15:29N 34°41' E 135°13'0 0.0
2018-Jun-11 15:00N 34°41' E 135°13'0 0.0
2018-Jun-11 14:30N 34°41' E 135°13'0 0.0
2018-Jun-11 14:00N 34°41' E 135°13'0 0.0
2018-Jun-11 13:30N 34°41' E 135°13'0 0.0
2018-Jun-11 13:00N 34°41' E 135°13'0 0.0
2018-Jun-11 12:30N 34°41' E 135°13'0 0.0
2018-Jun-11 12:00N 34°41' E 135°13'0 0.0
2018-Jun-11 11:30N 34°41' E 135°13'0 0.0
2018-Jun-11 11:00N 34°41' E 135°13'0 0.0
2018-Jun-11 10:30N 34°41' E 135°13'0 0.0
2018-Jun-11 10:00N 34°41' E 135°13'0 0.0
2018-Jun-11 09:30N 34°41' E 135°13'0 0.0
2018-Jun-11 08:59N 34°41' E 135°13'0 0.0
2018-Jun-11 08:30N 34°41' E 135°13'0 0.0
2018-Jun-11 08:00N 34°41' E 135°13'0 0.0
2018-Jun-11 07:30N 34°41' E 135°13'0 0.0
2018-Jun-11 07:00N 34°41' E 135°13'0 0.0
2018-Jun-11 06:30N 34°41' E 135°13'0 0.0
2018-Jun-11 06:00N 34°41' E 135°13'0 0.0
2018-Jun-11 05:29N 34°41' E 135°13'0 0.0
2018-Jun-11 05:00N 34°41' E 135°13'0 0.0
2018-Jun-11 04:30N 34°41' E 135°13'0 0.0
2018-Jun-11 04:00N 34°41' E 135°13'0 0.0
2018-Jun-11 03:30N 34°41' E 135°13'0 0.0
2018-Jun-11 03:00N 34°41' E 135°13'0 0.0
2018-Jun-11 02:30N 34°41' E 135°13'0 0.0
2018-Jun-11 02:00N 34°41' E 135°13'0 0.0
2018-Jun-11 01:30N 34°41' E 135°13'0 0.0
2018-Jun-11 01:00N 34°41' E 135°13'0 0.0
2018-Jun-11 00:30N 34°41' E 135°13'0 0.0
2018-Jun-11 00:00N 34°41' E 135°13'0 0.0
2018-Jun-10 23:30N 34°41' E 135°13'0 0.0
2018-Jun-10 23:00N 34°41' E 135°13'0 0.0
2018-Jun-10 22:30N 34°41' E 135°13'0 0.0
2018-Jun-10 22:00N 34°41' E 135°13'0 0.0
2018-Jun-10 21:30N 34°41' E 135°13'0 0.0
2018-Jun-10 21:00N 34°41' E 135°13'0 0.0
2018-Jun-10 20:30N 34°41' E 135°13'0 0.0
2018-Jun-10 20:00N 34°41' E 135°13'0 0.0
2018-Jun-10 19:30N 34°41' E 135°13'0 0.0
2018-Jun-10 19:00N 34°41' E 135°13'0 0.0
2018-Jun-10 18:30N 34°41' E 135°13'0 0.0
2018-Jun-10 18:00N 34°41' E 135°13'0 0.0
2018-Jun-10 17:30N 34°41' E 135°13'0 0.0
2018-Jun-10 17:00N 34°41' E 135°13'0 0.0
2018-Jun-10 16:30N 34°41' E 135°13'0 0.0
2018-Jun-10 16:00N 34°41' E 135°13'0 0.0
2018-Jun-10 15:30N 34°41' E 135°13'0 0.0
2018-Jun-10 15:00N 34°41' E 135°13'0 0.0
2018-Jun-10 14:00N 34°41' E 135°13'0 0.0
2018-Jun-10 13:30N 34°41' E 135°13'0 0.0
2018-Jun-10 12:59N 34°41' E 135°13'0 0.0
2018-Jun-10 12:30N 34°41' E 135°13'0 0.0
2018-Jun-10 12:00N 34°41' E 135°13'0 0.0
2018-Jun-10 11:30N 34°41' E 135°13'0 0.0
2018-Jun-10 11:00N 34°41' E 135°13'0 0.0
2018-Jun-10 10:30N 34°41' E 135°13'0 0.0
2018-Jun-10 10:00N 34°41' E 135°13'0 0.0
2018-Jun-10 09:30N 34°41' E 135°13'0 0.0
2018-Jun-10 09:00N 34°41' E 135°13'0 0.0
2018-Jun-10 08:30N 34°41' E 135°13'0 0.0
2018-Jun-10 08:00N 34°41' E 135°13'0 0.0
2018-Jun-10 07:30N 34°41' E 135°13'0 0.0
2018-Jun-10 07:00N 34°41' E 135°13'0 0.0
2018-Jun-10 06:30N 34°41' E 135°13'0 0.0
2018-Jun-10 06:00N 34°41' E 135°13'0 0.0
2018-Jun-10 05:30N 34°41' E 135°13'0 0.0
2018-Jun-10 05:00N 34°41' E 135°13'0 0.0
2018-Jun-10 04:30N 34°41' E 135°13'0 0.0
2018-Jun-10 04:00N 34°41' E 135°13'0 0.0
2018-Jun-10 03:30N 34°41' E 135°13'0 0.0
2018-Jun-10 03:00N 34°41' E 135°13'0 0.0
2018-Jun-10 02:30N 34°41' E 135°13'0 0.0
2018-Jun-10 02:00N 34°41' E 135°13'0 0.0
2018-Jun-10 01:30N 34°41' E 135°13'0 0.0
2018-Jun-10 01:00N 34°41' E 135°13'0 0.0
2018-Jun-10 00:30N 34°41' E 135°13'0 0.0
2018-Jun-10 00:00N 34°41' E 135°13'0 0.0
2018-Jun-09 23:30N 34°41' E 135°13'0 0.0
2018-Jun-09 23:00N 34°41' E 135°13'0 0.0
2018-Jun-09 22:30N 34°41' E 135°13'0 0.0
2018-Jun-09 22:00N 34°41' E 135°13'0 0.0
2018-Jun-09 21:30N 34°41' E 135°13'0 0.0
2018-Jun-09 21:00N 34°41' E 135°13'0 0.0
2018-Jun-09 20:30N 34°41' E 135°13'0 0.0
2018-Jun-09 20:00N 34°41' E 135°13'0 0.0
2018-Jun-09 19:30N 34°41' E 135°13'0 0.0
2018-Jun-09 19:00N 34°41' E 135°13'0 0.0
2018-Jun-09 18:30N 34°41' E 135°13'0 0.0
2018-Jun-09 18:00N 34°41' E 135°13'0 0.0
2018-Jun-09 17:30N 34°41' E 135°13'0 0.0
2018-Jun-09 17:00N 34°41' E 135°13'0 0.0
2018-Jun-09 16:30N 34°41' E 135°13'0 0.0
2018-Jun-09 16:00N 34°41' E 135°13'0 0.0
2018-Jun-09 15:00N 34°41' E 135°13'0 0.0
2018-Jun-09 14:30N 34°41' E 135°13'0 0.0
2018-Jun-09 13:59N 34°41' E 135°13'0 0.0
2018-Jun-09 13:30N 34°41' E 135°13'0 0.0
2018-Jun-09 13:00N 34°41' E 135°13'0 0.0
2018-Jun-09 12:30N 34°41' E 135°13'0 0.0
2018-Jun-09 12:00N 34°41' E 135°13'0 0.0
2018-Jun-09 11:30N 34°41' E 135°13'0 0.0
2018-Jun-09 11:00N 34°41' E 135°13'0 0.0
2018-Jun-09 10:30N 34°41' E 135°13'0 0.0
2018-Jun-09 10:00N 34°41' E 135°13'0 0.0
2018-Jun-09 09:30N 34°41' E 135°13'0 0.0
2018-Jun-09 09:00N 34°41' E 135°13'0 0.0
2018-Jun-09 08:30N 34°41' E 135°13'0 0.0
2018-Jun-09 08:00N 34°41' E 135°13'0 0.0
2018-Jun-09 07:30N 34°41' E 135°13'0 0.0
2018-Jun-09 07:00N 34°41' E 135°13'0 0.0
2018-Jun-09 06:30N 34°41' E 135°13'0 0.0
2018-Jun-09 06:00N 34°41' E 135°13'0 0.0
2018-Jun-09 05:30N 34°41' E 135°13'0 0.0
2018-Jun-09 05:00N 34°41' E 135°13'0 0.0
2018-Jun-09 04:30N 34°41' E 135°13'0 0.0
2018-Jun-09 04:00N 34°41' E 135°13'0 0.0
2018-Jun-09 03:30N 34°41' E 135°13'0 0.0
2018-Jun-09 03:00N 34°41' E 135°13'0 0.0
2018-Jun-09 02:30N 34°41' E 135°13'0 0.0
2018-Jun-09 02:00N 34°41' E 135°13'0 0.0
2018-Jun-09 01:30N 34°41' E 135°13'0 0.0
2018-Jun-09 01:00N 34°41' E 135°13'0 0.0
2018-Jun-09 00:30N 34°41' E 135°13'0 0.0
2018-Jun-09 00:00N 34°41' E 135°13'0 0.0
2018-Jun-08 23:30N 34°41' E 135°13'0 0.0
2018-Jun-08 23:00N 34°41' E 135°13'0 0.0
2018-Jun-08 22:30N 34°41' E 135°13'0 0.0
2018-Jun-08 22:00N 34°41' E 135°13'0 0.0
2018-Jun-08 21:30N 34°41' E 135°13'0 0.0
2018-Jun-08 21:00N 34°41' E 135°13'0 0.0
2018-Jun-08 20:30N 34°41' E 135°13'0 0.0
2018-Jun-08 20:00N 34°41' E 135°13'0 0.0
2018-Jun-08 19:30N 34°41' E 135°13'0 0.0
2018-Jun-08 19:00N 34°41' E 135°13'0 0.0
2018-Jun-08 18:30N 34°41' E 135°13'0 0.0
2018-Jun-08 18:00N 34°41' E 135°13'0 0.0
2018-Jun-08 17:30N 34°41' E 135°13'0 0.0
2018-Jun-08 16:58N 34°41' E 135°13'0 0.0
2018-Jun-08 16:27N 34°41' E 135°13'0 0.0
2018-Jun-08 16:00N 34°41' E 135°13'0 0.0
2018-Jun-08 15:30N 34°41' E 135°13'0 0.0
2018-Jun-08 15:00N 34°41' E 135°13'0 0.0
2018-Jun-08 14:30N 34°41' E 135°13'0 0.0
2018-Jun-08 14:00N 34°41' E 135°13'0 0.0
2018-Jun-08 13:30N 34°41' E 135°13'0 0.0
2018-Jun-08 13:00N 34°41' E 135°13'0 0.0
2018-Jun-08 12:30N 34°41' E 135°13'0 0.0
2018-Jun-08 12:00N 34°41' E 135°13'0 0.0
2018-Jun-08 11:30N 34°41' E 135°13'0 0.0
2018-Jun-08 11:00N 34°41' E 135°13'0 0.0
2018-Jun-08 10:30N 34°41' E 135°13'0 0.0
2018-Jun-08 10:00N 34°41' E 135°13'0 0.0
2018-Jun-08 09:30N 34°41' E 135°13'0 0.0
2018-Jun-08 09:00N 34°41' E 135°13'  
Track history (hours):
 
Tides and Currents Weather Stations Pressure Air Temp Water Temp Dewpoint Dewpoint Depression Visibility Wind Speed Wind Dir Waves Ship Positions

Settsu

Last reported at 2018-Jun-18 08:58 UTC. Time now 2018-Jun-20 07:24 UTC.
Position N 34°41' E 135°13'.

Length 105 m; draft 5.2 m.

Type: SAR. MMSI: 431282000.

Date/timePositionNaut miles runAvg speedWind from/ knotsBaromVisibWave heightAir tempDewpointWater temp
2018-Jun-18 08:58N 34°41' E 135°13'0 0.5
2018-Jun-18 08:30N 34°41' E 135°12'4 7.1
2018-Jun-18 08:00N 34°39' E 135°16'611.3
2018-Jun-18 07:30N 34°34' E 135°14'4 2.8
2018-Jun-18 06:08N 34°37' E 135°11'212.0
2018-Jun-18 06:00N 34°38' E 135°11'2 4.2
2018-Jun-18 05:29N 34°40' E 135°12'0 0.5
2018-Jun-18 04:59N 34°40' E 135°12'2 5.0
2018-Jun-18 04:30N 34°38' E 135°11'3 5.1
2018-Jun-18 04:00N 34°35' E 135°11'2 4.5
2018-Jun-18 03:30N 34°34' E 135°13'0 1.0
2018-Jun-18 03:00N 34°34' E 135°14'0 1.0
2018-Jun-18 02:30N 34°33' E 135°14'1 1.1
2018-Jun-18 02:00N 34°33' E 135°15'0 0.9
2018-Jun-18 01:30N 34°33' E 135°15'0 0.9
2018-Jun-18 01:00N 34°33' E 135°16'1 1.2
2018-Jun-18 00:29N 34°34' E 135°16'510.0
2018-Jun-18 00:01N 34°38' E 135°19'2 4.5
2018-Jun-17 23:30N 34°40' E 135°20'  
2018-Jun-15 04:56N 34°13' E 135°05'2 5.7
2018-Jun-15 04:31N 34°13' E 135°08'0 0.0
2018-Jun-14 04:18N 34°13' E 135°08'0 0.0
2018-Jun-14 04:01N 34°13' E 135°08'0 0.0
2018-Jun-14 03:30N 34°13' E 135°08'2 3.8
2018-Jun-14 02:58N 34°13' E 135°06'2510.9
2018-Jun-14 00:39N 34°37' E 135°16'212.9
2018-Jun-14 00:30N 34°39' E 135°16'3 6.7
2018-Jun-14 00:00N 34°41' E 135°13'0 0.0
2018-Jun-13 23:30N 34°41' E 135°13'0 0.0
2018-Jun-13 23:00N 34°41' E 135°13'0 0.0
2018-Jun-13 22:30N 34°41' E 135°13'0 0.0
2018-Jun-13 22:00N 34°41' E 135°13'0 0.0
2018-Jun-13 21:30N 34°41' E 135°13'0 0.0
2018-Jun-13 21:00N 34°41' E 135°13'0 0.0
2018-Jun-13 20:30N 34°41' E 135°13'0 0.0
2018-Jun-13 20:00N 34°41' E 135°13'0 0.0
2018-Jun-13 19:30N 34°41' E 135°13'0 0.0
2018-Jun-13 19:00N 34°41' E 135°13'0 0.0
2018-Jun-13 18:30N 34°41' E 135°13'0 0.0
2018-Jun-13 18:00N 34°41' E 135°13'0 0.0
2018-Jun-13 17:30N 34°41' E 135°13'0 0.0
2018-Jun-13 17:00N 34°41' E 135°13'0 0.0
2018-Jun-13 16:30N 34°41' E 135°13'0 0.0
2018-Jun-13 16:00N 34°41' E 135°13'0 0.0
2018-Jun-13 15:30N 34°41' E 135°13'0 0.0
2018-Jun-13 15:00N 34°41' E 135°13'0 0.0
2018-Jun-13 14:30N 34°41' E 135°13'0 0.0
2018-Jun-13 14:00N 34°41' E 135°13'0 0.0
2018-Jun-13 13:30N 34°41' E 135°13'0 0.0
2018-Jun-13 13:00N 34°41' E 135°13'0 0.0
2018-Jun-13 12:30N 34°41' E 135°13'0 0.0
2018-Jun-13 12:00N 34°41' E 135°13'0 0.0
2018-Jun-13 11:30N 34°41' E 135°13'0 0.0
2018-Jun-13 10:59N 34°41' E 135°13'0 0.0
2018-Jun-13 10:30N 34°41' E 135°13'0 0.0
2018-Jun-13 09:59N 34°41' E 135°13'0 0.0
2018-Jun-13 09:30N 34°41' E 135°13'0 0.0
2018-Jun-13 09:00N 34°41' E 135°13'0 0.0
2018-Jun-13 08:30N 34°41' E 135°13'0 0.0
2018-Jun-13 08:00N 34°41' E 135°13'0 0.0
2018-Jun-13 07:30N 34°41' E 135°13'0 0.0
2018-Jun-13 07:00N 34°41' E 135°13'0 0.0
2018-Jun-13 06:30N 34°41' E 135°13'0 0.0
2018-Jun-13 05:59N 34°41' E 135°13'0 0.0
2018-Jun-13 05:30N 34°41' E 135°13'0 0.0
2018-Jun-13 05:00N 34°41' E 135°13'0 0.0
2018-Jun-13 04:30N 34°41' E 135°13'0 0.0
2018-Jun-13 04:00N 34°41' E 135°13'0 0.0
2018-Jun-13 03:30N 34°41' E 135°13'0 0.0
2018-Jun-13 03:00N 34°41' E 135°13'0 0.0
2018-Jun-13 02:30N 34°41' E 135°13'0 0.0
2018-Jun-13 02:00N 34°41' E 135°13'0 0.0
2018-Jun-13 01:30N 34°41' E 135°13'0 0.0
2018-Jun-13 01:00N 34°41' E 135°13'0 0.0
2018-Jun-13 00:30N 34°41' E 135°13'0 0.0
2018-Jun-13 00:00N 34°41' E 135°13'0 0.0
2018-Jun-12 23:30N 34°41' E 135°13'0 0.0
2018-Jun-12 23:00N 34°41' E 135°13'0 0.0
2018-Jun-12 22:30N 34°41' E 135°13'0 0.0
2018-Jun-12 22:00N 34°41' E 135°13'0 0.0
2018-Jun-12 21:30N 34°41' E 135°13'0 0.0
2018-Jun-12 21:00N 34°41' E 135°13'0 0.0
2018-Jun-12 20:30N 34°41' E 135°13'0 0.0
2018-Jun-12 20:00N 34°41' E 135°13'0 0.0
2018-Jun-12 19:29N 34°41' E 135°13'0 0.0
2018-Jun-12 19:00N 34°41' E 135°13'0 0.0
2018-Jun-12 18:30N 34°41' E 135°13'0 0.0
2018-Jun-12 18:00N 34°41' E 135°13'0 0.0
2018-Jun-12 17:29N 34°41' E 135°13'0 0.0
2018-Jun-12 17:00N 34°41' E 135°13'0 0.0
2018-Jun-12 16:30N 34°41' E 135°13'0 0.0
2018-Jun-12 16:00N 34°41' E 135°13'0 0.0
2018-Jun-12 15:30N 34°41' E 135°13'0 0.0
2018-Jun-12 15:00N 34°41' E 135°13'0 0.0
2018-Jun-12 14:30N 34°41' E 135°13'0 0.0
2018-Jun-12 14:00N 34°41' E 135°13'0 0.0
2018-Jun-12 13:30N 34°41' E 135°13'0 0.0
2018-Jun-12 13:00N 34°41' E 135°13'0 0.0
2018-Jun-12 12:30N 34°41' E 135°13'0 0.0
2018-Jun-12 12:00N 34°41' E 135°13'0 0.0
2018-Jun-12 11:30N 34°41' E 135°13'0 0.0
2018-Jun-12 11:00N 34°41' E 135°13'0 0.0
2018-Jun-12 10:30N 34°41' E 135°13'0 0.0
2018-Jun-12 10:00N 34°41' E 135°13'0 0.0
2018-Jun-12 09:30N 34°41' E 135°13'0 0.0
2018-Jun-12 09:00N 34°41' E 135°13'0 0.0
2018-Jun-12 08:30N 34°41' E 135°13'0 0.0
2018-Jun-12 08:00N 34°41' E 135°13'0 0.0
2018-Jun-12 07:30N 34°41' E 135°13'0 0.0
2018-Jun-12 07:00N 34°41' E 135°13'0 0.0
2018-Jun-12 06:28N 34°41' E 135°13'0 0.0
2018-Jun-12 06:00N 34°41' E 135°13'0 0.0
2018-Jun-12 05:30N 34°41' E 135°13'0 0.0
2018-Jun-12 04:59N 34°41' E 135°13'0 0.0
2018-Jun-12 04:30N 34°41' E 135°13'0 0.0
2018-Jun-12 04:00N 34°41' E 135°13'0 0.0
2018-Jun-12 03:30N 34°41' E 135°13'0 0.0
2018-Jun-12 03:00N 34°41' E 135°13'0 0.0
2018-Jun-12 02:30N 34°41' E 135°13'0 0.0
2018-Jun-12 01:57N 34°41' E 135°13'0 0.0
2018-Jun-12 01:30N 34°41' E 135°13'0 0.0
2018-Jun-12 01:00N 34°41' E 135°13'0 0.0
2018-Jun-12 00:30N 34°41' E 135°13'0 0.0
2018-Jun-12 00:00N 34°41' E 135°13'0 0.0
2018-Jun-11 23:30N 34°41' E 135°13'0 0.0
2018-Jun-11 23:00N 34°41' E 135°13'0 0.0
2018-Jun-11 22:30N 34°41' E 135°13'0 0.0
2018-Jun-11 22:00N 34°41' E 135°13'0 0.0
2018-Jun-11 21:30N 34°41' E 135°13'0 0.0
2018-Jun-11 21:00N 34°41' E 135°13'0 0.0
2018-Jun-11 20:30N 34°41' E 135°13'0 0.0
2018-Jun-11 20:00N 34°41' E 135°13'0 0.0
2018-Jun-11 19:30N 34°41' E 135°13'0 0.0
2018-Jun-11 19:00N 34°41' E 135°13'0 0.0
2018-Jun-11 18:30N 34°41' E 135°13'0 0.0
2018-Jun-11 18:00N 34°41' E 135°13'0 0.0
2018-Jun-11 17:30N 34°41' E 135°13'0 0.0
2018-Jun-11 16:57N 34°41' E 135°13'0 0.0
2018-Jun-11 16:30N 34°41' E 135°13'0 0.0
2018-Jun-11 16:00N 34°41' E 135°13'0 0.0
2018-Jun-11 15:29N 34°41' E 135°13'0 0.0
2018-Jun-11 15:00N 34°41' E 135°13'0 0.0
2018-Jun-11 14:30N 34°41' E 135°13'0 0.0
2018-Jun-11 14:00N 34°41' E 135°13'0 0.0
2018-Jun-11 13:30N 34°41' E 135°13'0 0.0
2018-Jun-11 13:00N 34°41' E 135°13'0 0.0
2018-Jun-11 12:30N 34°41' E 135°13'0 0.0
2018-Jun-11 12:00N 34°41' E 135°13'0 0.0
2018-Jun-11 11:30N 34°41' E 135°13'0 0.0
2018-Jun-11 11:00N 34°41' E 135°13'0 0.0
2018-Jun-11 10:30N 34°41' E 135°13'0 0.0
2018-Jun-11 10:00N 34°41' E 135°13'0 0.0
2018-Jun-11 09:30N 34°41' E 135°13'0 0.0
2018-Jun-11 08:59N 34°41' E 135°13'0 0.0
2018-Jun-11 08:30N 34°41' E 135°13'0 0.0
2018-Jun-11 08:00N 34°41' E 135°13'0 0.0
2018-Jun-11 07:30N 34°41' E 135°13'0 0.0
2018-Jun-11 07:00N 34°41' E 135°13'0 0.0
2018-Jun-11 06:30N 34°41' E 135°13'0 0.0
2018-Jun-11 06:00N 34°41' E 135°13'0 0.0
2018-Jun-11 05:29N 34°41' E 135°13'0 0.0
2018-Jun-11 05:00N 34°41' E 135°13'0 0.0
2018-Jun-11 04:30N 34°41' E 135°13'0 0.0
2018-Jun-11 04:00N 34°41' E 135°13'0 0.0
2018-Jun-11 03:30N 34°41' E 135°13'0 0.0
2018-Jun-11 03:00N 34°41' E 135°13'0 0.0
2018-Jun-11 02:30N 34°41' E 135°13'0 0.0
2018-Jun-11 02:00N 34°41' E 135°13'0 0.0
2018-Jun-11 01:30N 34°41' E 135°13'0 0.0
2018-Jun-11 01:00N 34°41' E 135°13'0 0.0
2018-Jun-11 00:30N 34°41' E 135°13'0 0.0
2018-Jun-11 00:00N 34°41' E 135°13'0 0.0
2018-Jun-10 23:30N 34°41' E 135°13'0 0.0
2018-Jun-10 23:00N 34°41' E 135°13'0 0.0
2018-Jun-10 22:30N 34°41' E 135°13'0 0.0
2018-Jun-10 22:00N 34°41' E 135°13'0 0.0
2018-Jun-10 21:30N 34°41' E 135°13'0 0.0
2018-Jun-10 21:00N 34°41' E 135°13'0 0.0
2018-Jun-10 20:30N 34°41' E 135°13'0 0.0
2018-Jun-10 20:00N 34°41' E 135°13'0 0.0
2018-Jun-10 19:30N 34°41' E 135°13'0 0.0
2018-Jun-10 19:00N 34°41' E 135°13'0 0.0
2018-Jun-10 18:30N 34°41' E 135°13'0 0.0
2018-Jun-10 18:00N 34°41' E 135°13'0 0.0
2018-Jun-10 17:30N 34°41' E 135°13'0 0.0
2018-Jun-10 17:00N 34°41' E 135°13'0 0.0
2018-Jun-10 16:30N 34°41' E 135°13'0 0.0
2018-Jun-10 16:00N 34°41' E 135°13'0 0.0
2018-Jun-10 15:30N 34°41' E 135°13'0 0.0
2018-Jun-10 15:00N 34°41' E 135°13'0 0.0
2018-Jun-10 14:00N 34°41' E 135°13'0 0.0
2018-Jun-10 13:30N 34°41' E 135°13'0 0.0
2018-Jun-10 12:59N 34°41' E 135°13'0 0.0
2018-Jun-10 12:30N 34°41' E 135°13'0 0.0
2018-Jun-10 12:00N 34°41' E 135°13'0 0.0
2018-Jun-10 11:30N 34°41' E 135°13'0 0.0
2018-Jun-10 11:00N 34°41' E 135°13'0 0.0
2018-Jun-10 10:30N 34°41' E 135°13'0 0.0
2018-Jun-10 10:00N 34°41' E 135°13'0 0.0
2018-Jun-10 09:30N 34°41' E 135°13'0 0.0
2018-Jun-10 09:00N 34°41' E 135°13'0 0.0
2018-Jun-10 08:30N 34°41' E 135°13'0 0.0
2018-Jun-10 08:00N 34°41' E 135°13'0 0.0
2018-Jun-10 07:30N 34°41' E 135°13'0 0.0
2018-Jun-10 07:00N 34°41' E 135°13'0 0.0
2018-Jun-10 06:30N 34°41' E 135°13'0 0.0
2018-Jun-10 06:00N 34°41' E 135°13'0 0.0
2018-Jun-10 05:30N 34°41' E 135°13'0 0.0
2018-Jun-10 05:00N 34°41' E 135°13'0 0.0
2018-Jun-10 04:30N 34°41' E 135°13'0 0.0
2018-Jun-10 04:00N 34°41' E 135°13'0 0.0
2018-Jun-10 03:30N 34°41' E 135°13'0 0.0
2018-Jun-10 03:00N 34°41' E 135°13'0 0.0
2018-Jun-10 02:30N 34°41' E 135°13'0 0.0
2018-Jun-10 02:00N 34°41' E 135°13'0 0.0
2018-Jun-10 01:30N 34°41' E 135°13'0 0.0
2018-Jun-10 01:00N 34°41' E 135°13'0 0.0
2018-Jun-10 00:30N 34°41' E 135°13'0 0.0
2018-Jun-10 00:00N 34°41' E 135°13'0 0.0
2018-Jun-09 23:30N 34°41' E 135°13'0 0.0
2018-Jun-09 23:00N 34°41' E 135°13'0 0.0
2018-Jun-09 22:30N 34°41' E 135°13'0 0.0
2018-Jun-09 22:00N 34°41' E 135°13'0 0.0
2018-Jun-09 21:30N 34°41' E 135°13'0 0.0
2018-Jun-09 21:00N 34°41' E 135°13'0 0.0
2018-Jun-09 20:30N 34°41' E 135°13'0 0.0
2018-Jun-09 20:00N 34°41' E 135°13'0 0.0
2018-Jun-09 19:30N 34°41' E 135°13'0 0.0
2018-Jun-09 19:00N 34°41' E 135°13'0 0.0
2018-Jun-09 18:30N 34°41' E 135°13'0 0.0
2018-Jun-09 18:00N 34°41' E 135°13'0 0.0
2018-Jun-09 17:30N 34°41' E 135°13'0 0.0
2018-Jun-09 17:00N 34°41' E 135°13'0 0.0
2018-Jun-09 16:30N 34°41' E 135°13'0 0.0
2018-Jun-09 16:00N 34°41' E 135°13'0 0.0
2018-Jun-09 15:00N 34°41' E 135°13'0 0.0
2018-Jun-09 14:30N 34°41' E 135°13'0 0.0
2018-Jun-09 13:59N 34°41' E 135°13'0 0.0
2018-Jun-09 13:30N 34°41' E 135°13'0 0.0
2018-Jun-09 13:00N 34°41' E 135°13'0 0.0
2018-Jun-09 12:30N 34°41' E 135°13'0 0.0
2018-Jun-09 12:00N 34°41' E 135°13'0 0.0
2018-Jun-09 11:30N 34°41' E 135°13'0 0.0
2018-Jun-09 11:00N 34°41' E 135°13'0 0.0
2018-Jun-09 10:30N 34°41' E 135°13'0 0.0
2018-Jun-09 10:00N 34°41' E 135°13'0 0.0
2018-Jun-09 09:30N 34°41' E 135°13'0 0.0
2018-Jun-09 09:00N 34°41' E 135°13'0 0.0
2018-Jun-09 08:30N 34°41' E 135°13'0 0.0
2018-Jun-09 08:00N 34°41' E 135°13'0 0.0
2018-Jun-09 07:30N 34°41' E 135°13'0 0.0
2018-Jun-09 07:00N 34°41' E 135°13'0 0.0
2018-Jun-09 06:30N 34°41' E 135°13'0 0.0
2018-Jun-09 06:00N 34°41' E 135°13'0 0.0
2018-Jun-09 05:30N 34°41' E 135°13'0 0.0
2018-Jun-09 05:00N 34°41' E 135°13'0 0.0
2018-Jun-09 04:30N 34°41' E 135°13'0 0.0
2018-Jun-09 04:00N 34°41' E 135°13'0 0.0
2018-Jun-09 03:30N 34°41' E 135°13'0 0.0
2018-Jun-09 03:00N 34°41' E 135°13'0 0.0
2018-Jun-09 02:30N 34°41' E 135°13'0 0.0
2018-Jun-09 02:00N 34°41' E 135°13'0 0.0
2018-Jun-09 01:30N 34°41' E 135°13'0 0.0
2018-Jun-09 01:00N 34°41' E 135°13'0 0.0
2018-Jun-09 00:30N 34°41' E 135°13'0 0.0
2018-Jun-09 00:00N 34°41' E 135°13'0 0.0
2018-Jun-08 23:30N 34°41' E 135°13'0 0.0
2018-Jun-08 23:00N 34°41' E 135°13'0 0.0
2018-Jun-08 22:30N 34°41' E 135°13'0 0.0
2018-Jun-08 22:00N 34°41' E 135°13'0 0.0
2018-Jun-08 21:30N 34°41' E 135°13'0 0.0
2018-Jun-08 21:00N 34°41' E 135°13'0 0.0
2018-Jun-08 20:30N 34°41' E 135°13'0 0.0
2018-Jun-08 20:00N 34°41' E 135°13'0 0.0
2018-Jun-08 19:30N 34°41' E 135°13'0 0.0
2018-Jun-08 19:00N 34°41' E 135°13'0 0.0
2018-Jun-08 18:30N 34°41' E 135°13'0 0.0
2018-Jun-08 18:00N 34°41' E 135°13'0 0.0
2018-Jun-08 17:30N 34°41' E 135°13'0 0.0
2018-Jun-08 16:58N 34°41' E 135°13'0 0.0
2018-Jun-08 16:27N 34°41' E 135°13'0 0.0
2018-Jun-08 16:00N 34°41' E 135°13'0 0.0
2018-Jun-08 15:30N 34°41' E 135°13'0 0.0
2018-Jun-08 15:00N 34°41' E 135°13'0 0.0
2018-Jun-08 14:30N 34°41' E 135°13'0 0.0
2018-Jun-08 14:00N 34°41' E 135°13'0 0.0
2018-Jun-08 13:30N 34°41' E 135°13'0 0.0
2018-Jun-08 13:00N 34°41' E 135°13'0 0.0
2018-Jun-08 12:30N 34°41' E 135°13'0 0.0
2018-Jun-08 12:00N 34°41' E 135°13'0 0.0
2018-Jun-08 11:30N 34°41' E 135°13'0 0.0
2018-Jun-08 11:00N 34°41' E 135°13'0 0.0
2018-Jun-08 10:30N 34°41' E 135°13'0 0.0
2018-Jun-08 10:00N 34°41' E 135°13'0 0.0
2018-Jun-08 09:30N 34°41' E 135°13'0 0.0
2018-Jun-08 09:00N 34°41' E 135°13'  

Dump ship's entire track history